Time;durP1;ratioP1;P1;durP2;ratioP2;P2;SDS_P1;SDS_P2;PMS_P1;PMS_P2;Temp;Humidity;BMP_temperature;BMP_pressure;BME280_temperature;BME280_humidity;BME280_pressure;Samples;Min_cycle;Max_cycle;Signal;HPM_P1;HPM_P2
2022/04/17 00:00:36;;;;;;;6.35;3.45;;;;;;;;;;4995837;28;20221;-63
2022/04/17 00:03:01;;;;;;;5.93;3.30;;;;;;;;;;4995609;28;20217;-63
2022/04/17 00:05:27;;;;;;;6.05;3.83;;;;;;;;;;4995048;28;20225;-63
2022/04/17 00:07:52;;;;;;;7.60;3.63;;;;;;;;;;4995778;28;20237;-63
2022/04/17 00:10:17;;;;;;;5.55;3.42;;;;;;;;;;4995444;28;20264;-64
2022/04/17 00:12:43;;;;;;;6.82;3.47;;;;;;;;;;4988880;28;20213;-64
2022/04/17 00:15:09;;;;;;;8.27;3.72;;;;;;;;;;4993935;28;20221;-64
2022/04/17 00:17:37;;;;;;;5.75;3.88;;;;;;;;;;4994754;28;20209;-63
2022/04/17 00:20:02;;;;;;;5.80;3.17;;;;;;;;;;4994607;28;20213;-63
2022/04/17 00:22:27;;;;;;;6.95;3.75;;;;;;;;;;4995054;28;20212;-63
2022/04/17 00:24:52;;;;;;;9.13;3.63;;;;;;;;;;4995021;28;20205;-63
2022/04/17 00:27:18;;;;;;;6.45;3.70;;;;;;;;;;4994967;28;20260;-63
2022/04/17 00:29:44;;;;;;;6.68;3.80;;;;;;;;;;4995473;28;20209;-64
2022/04/17 00:32:09;;;;;;;8.00;3.65;;;;;;;;;;4992613;28;20232;-64
2022/04/17 00:34:36;;;;;;;6.15;3.40;;;;;;;;;;4995399;28;20209;-63
2022/04/17 00:37:02;;;;;;;6.18;3.47;;;;;;;;;;4994773;28;20564;-63
2022/04/17 00:39:27;;;;;;;7.03;3.60;;;;;;;;;;4993104;28;20209;-63
2022/04/17 00:41:54;;;;;;;7.35;3.67;;;;;;;;;;4993709;28;20210;-64
2022/04/17 00:44:19;;;;;;;6.88;3.50;;;;;;;;;;4993801;28;20288;-63
2022/04/17 00:46:44;;;;;;;6.65;3.65;;;;;;;;;;4994280;28;20347;-64
2022/04/17 00:49:10;;;;;;;6.55;3.35;;;;;;;;;;4994785;28;20221;-63
2022/04/17 00:51:36;;;;;;;6.05;3.30;;;;;;;;;;4994935;28;20209;-63
2022/04/17 00:54:03;;;;;;;5.95;3.28;;;;;;;;;;4993719;28;20252;-63
2022/04/17 00:56:28;;;;;;;7.28;3.40;;;;;;;;;;4993610;28;20296;-63
2022/04/17 00:58:53;;;;;;;8.80;3.50;;;;;;;;;;4993676;28;20292;-63
2022/04/17 01:01:18;;;;;;;5.63;3.30;;;;;;;;;;4993514;28;20573;-63
2022/04/17 01:03:44;;;;;;;6.97;3.50;;;;;;;;;;4994985;28;20252;-63
2022/04/17 01:06:09;;;;;;;6.53;3.60;;;;;;;;;;4994343;28;20237;-63
2022/04/17 01:08:40;;;;;;;5.53;3.58;;;;;;;;;;4994001;28;20572;-63
2022/04/17 01:11:06;;;;;;;6.95;3.55;;;;;;;;;;4994211;28;20264;-63
2022/04/17 01:13:31;;;;;;;6.05;3.42;;;;;;;;;;4993438;28;20205;-63
2022/04/17 01:15:58;;;;;;;9.52;3.63;;;;;;;;;;4993724;28;20229;-63
2022/04/17 01:18:24;;;;;;;7.90;3.50;;;;;;;;;;4992970;28;20209;-63
2022/04/17 01:20:49;;;;;;;5.68;3.50;;;;;;;;;;4994662;28;20566;-63
2022/04/17 01:28:42;;;;;;;6.30;3.97;;;;;;;;;;4993284;28;20252;-63
2022/04/17 01:31:07;;;;;;;5.70;3.90;;;;;;;;;;4993979;28;20244;-63
2022/04/17 01:33:33;;;;;;;6.32;3.75;;;;;;;;;;4993840;28;20209;-63
2022/04/17 01:35:58;;;;;;;6.90;3.38;;;;;;;;;;4993438;28;20213;-63
2022/04/17 01:38:23;;;;;;;6.13;3.83;;;;;;;;;;4993727;28;20209;-63
2022/04/17 01:40:48;;;;;;;9.02;4.38;;;;;;;;;;4994016;28;20205;-63
2022/04/17 01:43:14;;;;;;;5.97;3.58;;;;;;;;;;4991359;28;20213;-63
2022/04/17 01:45:39;;;;;;;6.78;4.10;;;;;;;;;;4994344;28;20296;-63
2022/04/17 01:48:04;;;;;;;8.68;3.60;;;;;;;;;;4993440;28;20229;-63
2022/04/17 01:50:30;;;;;;;5.95;3.63;;;;;;;;;;4993264;28;20685;-63
2022/04/17 01:52:57;;;;;;;7.82;3.83;;;;;;;;;;4993864;28;20205;-63
2022/04/17 01:55:22;;;;;;;7.00;3.70;;;;;;;;;;4993377;28;20247;-63
2022/04/17 01:57:48;;;;;;;7.50;4.00;;;;;;;;;;4992974;28;20244;-63
2022/04/17 02:00:13;;;;;;;5.97;3.97;;;;;;;;;;4993575;28;20664;-63
2022/04/17 02:02:38;;;;;;;6.17;3.80;;;;;;;;;;4993613;28;20236;-62
2022/04/17 02:05:04;;;;;;;7.57;3.80;;;;;;;;;;4992721;28;20209;-62
2022/04/17 02:07:29;;;;;;;5.80;3.30;;;;;;;;;;4993411;28;20221;-63
2022/04/17 02:09:54;;;;;;;7.13;3.80;;;;;;;;;;4993596;28;20363;-63
2022/04/17 02:12:19;;;;;;;6.45;3.97;;;;;;;;;;4992210;28;20228;-63
2022/04/17 02:14:46;;;;;;;7.38;4.22;;;;;;;;;;4993682;28;20682;-63
2022/04/17 02:17:12;;;;;;;6.30;4.00;;;;;;;;;;4992793;28;20627;-63
2022/04/17 02:19:37;;;;;;;7.60;3.72;;;;;;;;;;4993192;28;20667;-63
2022/04/17 02:22:02;;;;;;;10.13;4.00;;;;;;;;;;4992925;28;20236;-63
2022/04/17 02:24:28;;;;;;;7.03;3.60;;;;;;;;;;4991112;28;20540;-63
2022/04/17 02:26:53;;;;;;;6.65;4.20;;;;;;;;;;4993169;28;20248;-63
2022/04/17 02:29:18;;;;;;;8.10;4.00;;;;;;;;;;4993084;28;20296;-63
2022/04/17 02:31:43;;;;;;;6.90;3.70;;;;;;;;;;4992671;28;20691;-63
2022/04/17 02:34:09;;;;;;;6.57;4.10;;;;;;;;;;4992930;28;20217;-63
2022/04/17 02:36:34;;;;;;;7.00;4.13;;;;;;;;;;4993388;28;20574;-63
2022/04/17 02:38:59;;;;;;;7.25;4.47;;;;;;;;;;4992506;28;20591;-62
2022/04/17 02:41:25;;;;;;;6.95;4.03;;;;;;;;;;4992516;28;20216;-62
2022/04/17 02:43:50;;;;;;;6.93;4.35;;;;;;;;;;4993151;28;20213;-63
2022/04/17 02:47:42;;;;;;;6.78;4.35;;;;;;;;;;4992080;28;20209;-63
2022/04/17 02:49:01;;;;;;;6.82;4.22;;;;;;;;;;4992549;28;20220;-63
2022/04/17 02:51:26;;;;;;;9.10;4.33;;;;;;;;;;4993369;28;20315;-63
2022/04/17 02:53:51;;;;;;;9.05;4.30;;;;;;;;;;4992058;28;20205;-63
2022/04/17 02:56:16;;;;;;;8.80;4.23;;;;;;;;;;4992437;28;20236;-62
2022/04/17 02:58:42;;;;;;;6.93;4.45;;;;;;;;;;4992822;28;20568;-63
2022/04/17 03:06:35;;;;;;;8.00;4.75;;;;;;;;;;4992178;28;20287;-63
2022/04/17 03:09:00;;;;;;;7.47;4.90;;;;;;;;;;4993048;28;20621;-62
2022/04/17 03:11:25;;;;;;;6.57;4.30;;;;;;;;;;4992925;28;20248;-63
2022/04/17 03:13:52;;;;;;;7.53;4.35;;;;;;;;;;4992013;28;20754;-62
2022/04/17 03:16:17;;;;;;;7.47;4.40;;;;;;;;;;4992826;28;20216;-63
2022/04/17 03:18:43;;;;;;;8.45;5.03;;;;;;;;;;4992734;28;20209;-63
2022/04/17 03:21:08;;;;;;;7.93;5.20;;;;;;;;;;4991717;28;20213;-62
2022/04/17 03:23:33;;;;;;;8.83;5.50;;;;;;;;;;4992760;28;20236;-63
2022/04/17 03:25:58;;;;;;;9.25;5.07;;;;;;;;;;4992591;28;20221;-63
2022/04/17 03:28:24;;;;;;;9.10;5.43;;;;;;;;;;4991341;28;20271;-62
2022/04/17 03:30:49;;;;;;;7.90;4.90;;;;;;;;;;4992890;28;20217;-62
2022/04/17 03:33:14;;;;;;;11.60;5.30;;;;;;;;;;4992197;28;20219;-63
2022/04/17 03:35:40;;;;;;;10.70;5.18;;;;;;;;;;4992095;28;20356;-62
2022/04/17 03:38:05;;;;;;;7.68;4.63;;;;;;;;;;4992329;28;20221;-62
2022/04/17 03:40:30;;;;;;;9.00;5.50;;;;;;;;;;4992581;28;20288;-62
2022/04/17 03:42:57;;;;;;;8.90;4.57;;;;;;;;;;4991617;28;20573;-62
2022/04/17 03:45:23;;;;;;;8.50;5.40;;;;;;;;;;4992498;28;20212;-62
2022/04/17 03:47:48;;;;;;;8.80;5.30;;;;;;;;;;4977701;28;20229;-62
2022/04/17 03:50:13;;;;;;;8.75;5.57;;;;;;;;;;4969898;28;20633;-62
2022/04/17 03:52:39;;;;;;;10.07;5.57;;;;;;;;;;4978226;28;20222;-62
2022/04/17 03:55:05;;;;;;;9.50;5.67;;;;;;;;;;4962556;28;20316;-62
2022/04/17 03:57:30;;;;;;;10.27;5.80;;;;;;;;;;4990896;28;20210;-62
2022/04/17 03:59:55;;;;;;;10.77;5.77;;;;;;;;;;4972135;28;20293;-62
2022/04/17 04:02:22;;;;;;;7.83;5.03;;;;;;;;;;4961237;28;20238;-62
2022/04/17 04:04:47;;;;;;;9.48;5.85;;;;;;;;;;4966267;28;20217;-62
2022/04/17 04:07:12;;;;;;;10.50;5.77;;;;;;;;;;4985195;28;20599;-62
2022/04/17 04:09:38;;;;;;;8.82;5.80;;;;;;;;;;4985830;28;20227;-62
2022/04/17 04:12:05;;;;;;;8.45;5.80;;;;;;;;;;4984504;28;20275;-62
2022/04/17 04:14:30;;;;;;;8.70;5.87;;;;;;;;;;4985589;28;20221;-62
2022/04/17 04:16:55;;;;;;;9.35;6.20;;;;;;;;;;4985014;28;20279;-62
2022/04/17 04:19:21;;;;;;;8.90;5.70;;;;;;;;;;4985312;28;20568;-62
2022/04/17 04:21:47;;;;;;;8.57;5.80;;;;;;;;;;4972471;28;20218;-62
2022/04/17 04:24:15;;;;;;;11.90;6.00;;;;;;;;;;4975979;28;20727;-62
2022/04/17 04:26:41;;;;;;;9.07;6.03;;;;;;;;;;4978073;28;20363;-62
2022/04/17 04:29:07;;;;;;;10.77;5.90;;;;;;;;;;4983043;28;20707;-62
2022/04/17 04:31:32;;;;;;;11.30;6.90;;;;;;;;;;4984477;28;20205;-63
2022/04/17 04:33:57;;;;;;;11.73;6.83;;;;;;;;;;4985460;28;20232;-62
2022/04/17 04:36:22;;;;;;;9.73;6.57;;;;;;;;;;4984680;28;20228;-62
2022/04/17 04:38:48;;;;;;;10.63;6.43;;;;;;;;;;4984902;28;20213;-63
2022/04/17 04:41:13;;;;;;;10.93;6.53;;;;;;;;;;4978661;28;20269;-62
2022/04/17 04:43:38;;;;;;;9.73;6.25;;;;;;;;;;4961446;28;20874;-62
2022/04/17 04:46:09;;;;;;;9.30;6.40;;;;;;;;;;4957092;28;20222;-62
2022/04/17 04:51:19;;;;;;;10.23;6.60;;;;;;;;;;4994961;28;20267;-62
2022/04/17 04:53:44;;;;;;;9.83;6.50;;;;;;;;;;4984175;28;20217;-62
2022/04/17 04:56:10;;;;;;;10.45;6.32;;;;;;;;;;4976349;28;20233;-63
2022/04/17 04:58:35;;;;;;;9.05;6.05;;;;;;;;;;4965395;28;20230;-62
2022/04/17 05:01:01;;;;;;;9.00;6.13;;;;;;;;;;4965169;28;20233;-62
2022/04/17 05:03:26;;;;;;;10.70;6.40;;;;;;;;;;4965817;28;20225;-62
2022/04/17 05:05:52;;;;;;;9.43;5.60;;;;;;;;;;4967964;28;20217;-63
2022/04/17 05:08:18;;;;;;;8.70;5.95;;;;;;;;;;4974775;28;21247;-63
2022/04/17 05:10:44;;;;;;;8.80;5.35;;;;;;;;;;4976420;28;20702;-63
2022/04/17 05:13:09;;;;;;;11.55;5.78;;;;;;;;;;4978366;28;20225;-63
2022/04/17 05:15:34;;;;;;;8.40;5.90;;;;;;;;;;4984114;28;20668;-63
2022/04/17 05:18:00;;;;;;;9.15;6.05;;;;;;;;;;4984542;28;20267;-64
2022/04/17 05:20:26;;;;;;;8.80;5.53;;;;;;;;;;4983084;28;20534;-63
2022/04/17 05:22:56;;;;;;;8.50;5.70;;;;;;;;;;4984565;28;20604;-63
2022/04/17 05:25:22;;;;;;;7.80;5.60;;;;;;;;;;4983921;28;20705;-63
2022/04/17 05:27:47;;;;;;;7.40;5.25;;;;;;;;;;4982448;28;20585;-63
2022/04/17 05:30:12;;;;;;;9.35;5.72;;;;;;;;;;4975362;28;20751;-63
2022/04/17 05:32:38;;;;;;;7.55;5.53;;;;;;;;;;4976606;28;20304;-63
2022/04/17 05:35:03;;;;;;;22.05;6.40;;;;;;;;;;4976179;28;20221;-63
2022/04/17 05:37:29;;;;;;;15.07;6.28;;;;;;;;;;4982928;28;20217;-62
2022/04/17 05:39:54;;;;;;;8.40;5.80;;;;;;;;;;4984032;28;20575;-63
2022/04/17 05:42:19;;;;;;;8.73;6.00;;;;;;;;;;4968146;28;21284;-62
2022/04/17 05:44:45;;;;;;;9.55;6.18;;;;;;;;;;4979055;28;20223;-63
2022/04/17 05:47:10;;;;;;;8.88;5.85;;;;;;;;;;4979443;28;20690;-63
2022/04/17 05:49:36;;;;;;;8.68;6.10;;;;;;;;;;4964137;28;20665;-63
2022/04/17 05:52:01;;;;;;;8.68;5.90;;;;;;;;;;4973409;28;20340;-63
2022/04/17 05:54:26;;;;;;;9.35;5.85;;;;;;;;;;4971209;28;20230;-63
2022/04/17 05:56:52;;;;;;;9.30;5.78;;;;;;;;;;4976515;28;20616;-63
2022/04/17 05:59:17;;;;;;;9.20;6.20;;;;;;;;;;4961109;28;20218;-63
2022/04/17 06:01:42;;;;;;;8.88;6.00;;;;;;;;;;4964642;28;20229;-63
2022/04/17 06:04:08;;;;;;;9.55;6.25;;;;;;;;;;4963767;28;20222;-64
2022/04/17 06:06:33;;;;;;;8.15;5.72;;;;;;;;;;4964202;28;20296;-64
2022/04/17 06:08:58;;;;;;;10.00;7.03;;;;;;;;;;4983194;28;21006;-63
2022/04/17 06:11:24;;;;;;;9.48;6.55;;;;;;;;;;4981802;28;20224;-63
2022/04/17 06:13:49;;;;;;;9.18;6.88;;;;;;;;;;4979403;28;20307;-63
2022/04/17 06:16:14;;;;;;;9.00;6.30;;;;;;;;;;4955544;28;20225;-64
2022/04/17 06:18:39;;;;;;;7.50;5.88;;;;;;;;;;4955561;28;20256;-64
2022/04/17 06:21:05;;;;;;;9.45;6.63;;;;;;;;;;4958968;28;20221;-63
2022/04/17 06:23:31;;;;;;;8.43;6.57;;;;;;;;;;4963450;28;20210;-63
2022/04/17 06:25:57;;;;;;;9.95;6.28;;;;;;;;;;4964168;28;20253;-64
2022/04/17 06:28:22;;;;;;;8.27;6.30;;;;;;;;;;4972181;28;20230;-62
2022/04/17 06:30:47;;;;;;;9.88;6.35;;;;;;;;;;4991918;28;20221;-65
2022/04/17 06:33:12;;;;;;;9.03;6.50;;;;;;;;;;4991943;28;20453;-64
2022/04/17 06:35:38;;;;;;;8.80;6.35;;;;;;;;;;4992866;28;20209;-62
2022/04/17 06:38:05;;;;;;;9.90;6.75;;;;;;;;;;4991438;28;20252;-81
2022/04/17 06:40:32;;;;;;;9.15;6.70;;;;;;;;;;4992349;28;20792;-79
2022/04/17 06:42:58;;;;;;;8.77;6.50;;;;;;;;;;4993604;28;20209;-78
2022/04/17 06:45:25;;;;;;;8.48;6.53;;;;;;;;;;4991371;28;20217;-76
2022/04/17 06:47:50;;;;;;;8.40;6.10;;;;;;;;;;4992600;28;20224;-74
2022/04/17 06:50:16;;;;;;;9.35;6.75;;;;;;;;;;4991972;28;20220;-73
2022/04/17 06:52:41;;;;;;;9.02;6.93;;;;;;;;;;4991218;28;20672;-73
2022/04/17 06:55:08;;;;;;;8.23;6.28;;;;;;;;;;4991730;28;20229;-78
2022/04/17 06:57:34;;;;;;;11.38;6.90;;;;;;;;;;4992060;28;20205;-74
2022/04/17 07:00:03;;;;;;;7.93;6.43;;;;;;;;;;4990891;28;20271;-71
2022/04/17 07:02:28;;;;;;;10.02;6.78;;;;;;;;;;4992084;28;20209;-74
2022/04/17 07:04:54;;;;;;;9.77;6.55;;;;;;;;;;4992181;28;20716;-73
2022/04/17 07:07:21;;;;;;;8.93;6.00;;;;;;;;;;4990997;28;20224;-76
2022/04/17 07:09:46;;;;;;;8.85;6.20;;;;;;;;;;4993113;28;20252;-79
2022/04/17 07:12:11;;;;;;;9.32;6.22;;;;;;;;;;4991502;28;20217;-77
2022/04/17 07:14:37;;;;;;;10.38;6.30;;;;;;;;;;4989577;28;20205;-68
2022/04/17 07:17:03;;;;;;;9.30;6.45;;;;;;;;;;4990295;28;20285;-69
2022/04/17 07:19:28;;;;;;;10.57;6.43;;;;;;;;;;4989394;28;20304;-69
2022/04/17 07:21:53;;;;;;;8.90;5.95;;;;;;;;;;4991411;28;20216;-69
2022/04/17 07:24:19;;;;;;;10.40;6.00;;;;;;;;;;4991792;28;20296;-69
2022/04/17 07:26:44;;;;;;;10.27;6.00;;;;;;;;;;4991234;28;20221;-70
2022/04/17 07:29:09;;;;;;;9.95;5.90;;;;;;;;;;4990990;28;20300;-69
2022/04/17 07:31:34;;;;;;;7.70;5.45;;;;;;;;;;4993769;28;20205;-69
2022/04/17 07:34:00;;;;;;;9.50;5.80;;;;;;;;;;4995810;28;20213;-70
2022/04/17 07:36:25;;;;;;;8.70;5.68;;;;;;;;;;4995804;28;20799;-73
2022/04/17 07:38:50;;;;;;;9.27;5.55;;;;;;;;;;4996270;28;20213;-72
2022/04/17 07:41:16;;;;;;;9.45;5.32;;;;;;;;;;4995152;28;20216;-71
2022/04/17 07:43:41;;;;;;;8.82;5.28;;;;;;;;;;4996061;28;20217;-72
2022/04/17 07:46:06;;;;;;;7.40;4.90;;;;;;;;;;4995693;28;20213;-69
2022/04/17 07:48:31;;;;;;;7.35;4.70;;;;;;;;;;4995465;28;20303;-71
2022/04/17 07:50:57;;;;;;;6.07;4.00;;;;;;;;;;4996147;28;20216;-71
2022/04/17 07:53:22;;;;;;;7.35;4.55;;;;;;;;;;4995926;28;20301;-70
2022/04/17 07:55:48;;;;;;;6.72;4.28;;;;;;;;;;4995115;28;20240;-71
2022/04/17 07:58:23;;;;;;;6.35;3.97;;;;;;;;;;4995762;28;20264;-69
2022/04/17 08:00:57;;;;;;;6.78;4.13;;;;;;;;;;4995681;28;20255;-71
2022/04/17 08:03:34;;;;;;;5.97;3.92;;;;;;;;;;4994680;28;20236;-68
2022/04/17 08:06:00;;;;;;;6.68;4.25;;;;;;;;;;4994804;28;20267;-78
2022/04/17 08:08:26;;;;;;;7.35;4.20;;;;;;;;;;4995537;28;20217;-69
2022/04/17 08:10:51;;;;;;;6.53;4.40;;;;;;;;;;4995128;28;20210;-70
2022/04/17 08:13:16;;;;;;;6.50;4.50;;;;;;;;;;4995545;28;20228;-69
2022/04/17 08:15:41;;;;;;;6.57;4.25;;;;;;;;;;4995258;28;20213;-70
2022/04/17 08:18:07;;;;;;;6.15;3.97;;;;;;;;;;4994338;28;20784;-69
2022/04/17 08:20:32;;;;;;;6.15;3.97;;;;;;;;;;4995765;28;20217;-72
2022/04/17 08:22:57;;;;;;;6.68;3.83;;;;;;;;;;4994556;28;20308;-69
2022/04/17 08:25:23;;;;;;;7.95;4.30;;;;;;;;;;4994125;28;20536;-72
2022/04/17 08:27:48;;;;;;;6.30;4.07;;;;;;;;;;4994803;28;20268;-70
2022/04/17 08:30:14;;;;;;;6.45;4.05;;;;;;;;;;4994384;28;20205;-70
2022/04/17 08:32:40;;;;;;;6.45;4.35;;;;;;;;;;4993982;28;20225;-67
2022/04/17 08:35:06;;;;;;;6.85;4.10;;;;;;;;;;4992867;28;20213;-69
2022/04/17 08:37:31;;;;;;;5.90;3.60;;;;;;;;;;4992442;28;20220;-72
2022/04/17 08:39:56;;;;;;;8.50;4.38;;;;;;;;;;4993163;28;20206;-73
2022/04/17 08:42:22;;;;;;;6.18;3.90;;;;;;;;;;4992601;28;20224;-70
2022/04/17 08:44:47;;;;;;;6.97;3.92;;;;;;;;;;4991411;28;20585;-71
2022/04/17 08:47:12;;;;;;;6.55;4.10;;;;;;;;;;4991069;28;20283;-72
2022/04/17 08:49:38;;;;;;;6.93;4.35;;;;;;;;;;4993351;28;20255;-71
2022/04/17 08:52:04;;;;;;;6.95;3.92;;;;;;;;;;4991807;28;20598;-70
2022/04/17 08:54:29;;;;;;;6.90;3.67;;;;;;;;;;4992911;28;20224;-71
2022/04/17 08:56:54;;;;;;;6.70;3.90;;;;;;;;;;4991602;28;20216;-69
2022/04/17 08:59:20;;;;;;;6.65;4.00;;;;;;;;;;4991777;28;20304;-71
2022/04/17 09:01:46;;;;;;;5.55;3.85;;;;;;;;;;4992822;28;20587;-71
2022/04/17 09:04:11;;;;;;;5.93;3.55;;;;;;;;;;4992318;28;20746;-71
2022/04/17 09:06:36;;;;;;;6.97;4.18;;;;;;;;;;4990897;28;20213;-70
2022/04/17 09:09:02;;;;;;;6.60;4.25;;;;;;;;;;4992392;28;20291;-68
2022/04/17 09:11:28;;;;;;;7.03;3.78;;;;;;;;;;4992624;28;20211;-70
2022/04/17 09:13:58;;;;;;;5.78;3.83;;;;;;;;;;4990221;28;20292;-69
2022/04/17 09:16:25;;;;;;;5.57;4.10;;;;;;;;;;4991675;28;20664;-69
2022/04/17 09:18:50;;;;;;;8.05;4.05;;;;;;;;;;4991722;28;20205;-68
2022/04/17 09:21:27;;;;;;;6.88;4.13;;;;;;;;;;4990723;28;20231;-67
2022/04/17 09:23:53;;;;;;;6.03;4.10;;;;;;;;;;4992214;28;20571;-69
2022/04/17 09:26:19;;;;;;;6.65;4.20;;;;;;;;;;4990547;28;20321;-66
2022/04/17 09:28:44;;;;;;;7.40;4.20;;;;;;;;;;4990542;28;20228;-68
2022/04/17 09:31:10;;;;;;;6.72;4.38;;;;;;;;;;4989541;28;20265;-69
2022/04/17 09:33:37;;;;;;;6.97;4.28;;;;;;;;;;4971716;28;20292;-69
2022/04/17 09:36:03;;;;;;;7.38;4.18;;;;;;;;;;4973966;28;20511;-67
2022/04/17 09:38:30;;;;;;;7.07;4.18;;;;;;;;;;4978064;28;20750;-68
2022/04/17 09:41:09;;;;;;;8.82;4.78;;;;;;;;;;4966249;28;20216;-67
2022/04/17 09:43:35;;;;;;;7.18;4.22;;;;;;;;;;4978958;28;20216;-68
2022/04/17 09:46:02;;;;;;;6.28;4.30;;;;;;;;;;4984137;28;20252;-65
2022/04/17 09:48:29;;;;;;;8.85;4.55;;;;;;;;;;4984647;28;20217;-68
2022/04/17 09:50:55;;;;;;;6.72;4.32;;;;;;;;;;4971288;28;20636;-68
2022/04/17 09:53:30;;;;;;;6.03;4.03;;;;;;;;;;4965721;28;20681;-67
2022/04/17 09:56:09;;;;;;;6.43;4.32;;;;;;;;;;4981006;28;20278;-68
2022/04/17 09:58:36;;;;;;;6.80;4.63;;;;;;;;;;4963333;28;20337;-68
2022/04/17 10:01:03;;;;;;;8.35;4.10;;;;;;;;;;4972907;28;20365;-66
2022/04/17 10:03:28;;;;;;;6.35;3.90;;;;;;;;;;4981605;28;20216;-67
2022/04/17 10:05:54;;;;;;;6.65;3.95;;;;;;;;;;4984875;28;20213;-67
2022/04/17 10:08:19;;;;;;;6.22;4.10;;;;;;;;;;4982863;28;20280;-67
2022/04/17 10:10:44;;;;;;;8.05;4.50;;;;;;;;;;5000007;28;20236;-67
2022/04/17 10:13:09;;;;;;;6.65;3.58;;;;;;;;;;4985281;28;20667;-67
2022/04/17 10:15:35;;;;;;;7.57;3.95;;;;;;;;;;4999728;28;20224;-67
2022/04/17 10:18:00;;;;;;;6.00;3.35;;;;;;;;;;4997964;28;20209;-67
2022/04/17 10:20:26;;;;;;;7.45;3.83;;;;;;;;;;4992717;28;20213;-67
2022/04/17 10:22:57;;;;;;;5.65;3.50;;;;;;;;;;4977302;28;20935;-67
2022/04/17 10:25:22;;;;;;;7.10;3.78;;;;;;;;;;4993108;28;20209;-67
2022/04/17 10:27:49;;;;;;;5.65;3.63;;;;;;;;;;4985331;28;20229;-67
2022/04/17 10:30:15;;;;;;;6.47;3.97;;;;;;;;;;4983015;28;20248;-67
2022/04/17 10:32:59;;;;;;;7.18;4.25;;;;;;;;;;4984958;28;20698;-67
2022/04/17 10:35:26;;;;;;;6.57;3.85;;;;;;;;;;4984350;28;20212;-66
2022/04/17 10:37:52;;;;;;;6.20;3.90;;;;;;;;;;4999260;28;20224;-67
2022/04/17 10:40:18;;;;;;;6.53;4.28;;;;;;;;;;4969691;28;20510;-66
2022/04/17 10:42:53;;;;;;;7.13;4.68;;;;;;;;;;4959309;28;20300;-66
2022/04/17 10:45:18;;;;;;;6.95;4.53;;;;;;;;;;4957693;28;20255;-67
2022/04/17 10:47:59;;;;;;;6.10;4.32;;;;;;;;;;4960009;28;20623;-67
2022/04/17 10:50:25;;;;;;;8.98;4.00;;;;;;;;;;4979598;28;20307;-67
2022/04/17 10:52:51;;;;;;;6.28;3.55;;;;;;;;;;4990236;28;20213;-66
2022/04/17 10:55:18;;;;;;;7.68;3.95;;;;;;;;;;4989078;28;20593;-66
2022/04/17 10:57:44;;;;;;;7.18;4.00;;;;;;;;;;4990344;28;20212;-66
2022/04/17 11:00:26;;;;;;;7.75;3.75;;;;;;;;;;4990568;28;20209;-66
2022/04/17 11:02:52;;;;;;;5.65;3.10;;;;;;;;;;4971625;28;20218;-66
2022/04/17 11:08:24;;;;;;;6.57;3.50;;;;;;;;;;4974937;28;20312;-66
2022/04/17 11:10:52;;;;;;;4.97;2.80;;;;;;;;;;4990550;28;20321;-66
2022/04/17 11:13:18;;;;;;;6.13;2.67;;;;;;;;;;4974330;28;20214;-66
2022/04/17 11:15:43;;;;;;;6.32;2.70;;;;;;;;;;4975548;28;20209;-66
2022/04/17 11:18:08;;;;;;;4.68;2.50;;;;;;;;;;4990037;28;20217;-66
2022/04/17 11:20:34;;;;;;;6.38;2.70;;;;;;;;;;4988954;28;20206;-66
2022/04/17 11:23:00;;;;;;;5.28;3.30;;;;;;;;;;4975455;28;20689;-66
2022/04/17 11:25:26;;;;;;;6.35;2.88;;;;;;;;;;4974709;28;20225;-66
2022/04/17 11:27:51;;;;;;;4.88;2.65;;;;;;;;;;4974469;28;20261;-66
2022/04/17 11:30:16;;;;;;;6.47;2.90;;;;;;;;;;4974722;28;20233;-66
2022/04/17 11:32:42;;;;;;;9.32;3.30;;;;;;;;;;4975070;28;20214;-66
2022/04/17 11:35:07;;;;;;;5.93;2.90;;;;;;;;;;4973026;28;20217;-66
2022/04/17 11:37:33;;;;;;;7.78;3.88;;;;;;;;;;4974923;28;20209;-66
2022/04/17 11:39:58;;;;;;;6.03;3.30;;;;;;;;;;4985742;28;20781;-66
2022/04/17 11:42:29;;;;;;;7.57;3.30;;;;;;;;;;4994082;28;20314;-66
2022/04/17 11:44:59;;;;;;;5.50;3.33;;;;;;;;;;4992888;28;20205;-66
2022/04/17 11:47:24;;;;;;;6.03;3.08;;;;;;;;;;4992913;28;20307;-66
2022/04/17 11:49:49;;;;;;;5.88;3.15;;;;;;;;;;4993763;28;20236;-66
2022/04/17 11:52:15;;;;;;;6.40;3.42;;;;;;;;;;4993574;28;20208;-66
2022/04/17 11:54:41;;;;;;;7.78;3.60;;;;;;;;;;4993205;28;20248;-66
2022/04/17 11:57:06;;;;;;;5.85;3.70;;;;;;;;;;4993587;28;20668;-66
2022/04/17 11:59:50;;;;;;;7.35;3.33;;;;;;;;;;4993905;28;20304;-66
2022/04/17 12:02:16;;;;;;;5.40;3.30;;;;;;;;;;4992744;28;20220;-66
2022/04/17 12:04:42;;;;;;;6.05;3.30;;;;;;;;;;4992772;28;20205;-66
2022/04/17 12:07:08;;;;;;;5.68;3.22;;;;;;;;;;4993208;28;20231;-65
2022/04/17 12:09:33;;;;;;;6.43;3.50;;;;;;;;;;4991698;28;20571;-66
2022/04/17 12:11:59;;;;;;;5.13;3.25;;;;;;;;;;4993818;28;20213;-66
2022/04/17 12:14:30;;;;;;;6.57;3.40;;;;;;;;;;4993386;28;20296;-66
2022/04/17 12:16:56;;;;;;;6.05;3.13;;;;;;;;;;4992442;28;20216;-66
2022/04/17 12:19:21;;;;;;;5.20;3.28;;;;;;;;;;4993256;28;20213;-66
2022/04/17 12:21:47;;;;;;;6.05;3.50;;;;;;;;;;4993790;28;20240;-66
2022/04/17 12:24:12;;;;;;;5.10;3.55;;;;;;;;;;4992431;28;20205;-65
2022/04/17 12:26:38;;;;;;;5.15;3.47;;;;;;;;;;4993367;28;20204;-66
2022/04/17 12:29:05;;;;;;;5.45;3.45;;;;;;;;;;4992907;28;20225;-65
2022/04/17 12:31:30;;;;;;;9.75;4.78;;;;;;;;;;4991779;28;20622;-66
2022/04/17 12:34:13;;;;;;;5.63;3.20;;;;;;;;;;4992033;28;20698;-66
2022/04/17 12:36:38;;;;;;;5.45;3.20;;;;;;;;;;4990835;28;20792;-66
2022/04/17 12:39:04;;;;;;;4.35;3.22;;;;;;;;;;4988769;28;20229;-67
2022/04/17 12:41:30;;;;;;;4.60;3.15;;;;;;;;;;4967472;28;20309;-67
2022/04/17 12:43:55;;;;;;;5.78;3.17;;;;;;;;;;4979805;28;20210;-67
2022/04/17 12:46:22;;;;;;;5.05;3.00;;;;;;;;;;4983458;28;20563;-66
2022/04/17 12:48:47;;;;;;;6.57;3.17;;;;;;;;;;4967581;28;20252;-67
2022/04/17 12:51:13;;;;;;;5.20;3.20;;;;;;;;;;4979347;28;20632;-67
2022/04/17 12:53:39;;;;;;;5.13;2.90;;;;;;;;;;4967975;28;20237;-67
2022/04/17 12:56:05;;;;;;;4.90;2.60;;;;;;;;;;4960081;28;20226;-66
2022/04/17 12:58:45;;;;;;;4.85;2.67;;;;;;;;;;4961912;28;20217;-68
2022/04/17 13:01:16;;;;;;;4.28;2.90;;;;;;;;;;4962427;28;20328;-68
2022/04/17 13:03:41;;;;;;;5.55;2.97;;;;;;;;;;4968711;28;20201;-67
2022/04/17 13:06:09;;;;;;;4.77;3.20;;;;;;;;;;4966888;28;20438;-62
2022/04/17 13:08:35;;;;;;;4.35;2.95;;;;;;;;;;4986041;28;20229;-63
2022/04/17 13:11:00;;;;;;;7.93;3.58;;;;;;;;;;5001186;28;20213;-61
2022/04/17 13:13:35;;;;;;;6.95;3.30;;;;;;;;;;4969062;28;20284;-62
2022/04/17 13:16:01;;;;;;;5.43;3.30;;;;;;;;;;4983127;28;20312;-60
2022/04/17 13:18:26;;;;;;;5.07;3.40;;;;;;;;;;4963067;28;20232;-62
2022/04/17 13:20:52;;;;;;;5.20;3.33;;;;;;;;;;4962130;28;20210;-61
2022/04/17 13:23:17;;;;;;;6.28;4.10;;;;;;;;;;4960943;28;20234;-62
2022/04/17 13:25:42;;;;;;;7.22;3.83;;;;;;;;;;4967098;28;20214;-62
2022/04/17 13:28:08;;;;;;;5.65;3.40;;;;;;;;;;4968484;28;20239;-62
2022/04/17 13:30:33;;;;;;;5.97;3.75;;;;;;;;;;4969109;28;20248;-61
2022/04/17 13:32:59;;;;;;;7.03;3.78;;;;;;;;;;4968460;28;20708;-61
2022/04/17 13:35:24;;;;;;;6.47;4.18;;;;;;;;;;4968933;28;20213;-62
2022/04/17 13:40:33;;;;;;;7.18;3.70;;;;;;;;;;4982372;28;20296;-61
2022/04/17 13:42:58;;;;;;;5.28;3.65;;;;;;;;;;4980495;28;20221;-62
2022/04/17 13:45:23;;;;;;;6.20;3.63;;;;;;;;;;4979499;28;20223;-62
2022/04/17 13:47:49;;;;;;;5.07;3.40;;;;;;;;;;4983525;28;20236;-62
2022/04/17 13:50:14;;;;;;;4.68;3.38;;;;;;;;;;4981383;28;20221;-62
2022/04/17 13:52:39;;;;;;;4.38;3.17;;;;;;;;;;4969126;28;20228;-62
2022/04/17 13:55:05;;;;;;;4.35;2.88;;;;;;;;;;4967274;28;20241;-62
2022/04/17 13:57:30;;;;;;;4.88;3.47;;;;;;;;;;4968727;28;21398;-62
2022/04/17 13:59:56;;;;;;;6.35;3.85;;;;;;;;;;4968700;28;20209;-62
2022/04/17 14:02:21;;;;;;;6.05;3.15;;;;;;;;;;4967565;28;21458;-61
2022/04/17 14:04:47;;;;;;;5.25;3.33;;;;;;;;;;4961421;28;20218;-62
2022/04/17 14:07:12;;;;;;;4.80;3.17;;;;;;;;;;4960382;28;20987;-67
2022/04/17 14:09:38;;;;;;;5.22;3.30;;;;;;;;;;4961876;28;20686;-69
2022/04/17 14:12:06;;;;;;;6.45;3.10;;;;;;;;;;4984504;28;20228;-61
2022/04/17 14:14:32;;;;;;;6.25;2.88;;;;;;;;;;4987483;28;20217;-62
2022/04/17 14:16:57;;;;;;;4.63;2.90;;;;;;;;;;4986215;28;20212;-60
2022/04/17 14:19:22;;;;;;;5.13;2.88;;;;;;;;;;4986870;28;20223;-61
2022/04/17 14:21:48;;;;;;;4.80;2.92;;;;;;;;;;4976021;28;20684;-60
2022/04/17 14:24:13;;;;;;;5.10;3.20;;;;;;;;;;4968413;28;21336;-62
2022/04/17 14:26:39;;;;;;;5.15;3.40;;;;;;;;;;4960863;28;20245;-60
2022/04/17 14:29:04;;;;;;;4.97;3.25;;;;;;;;;;4977898;28;20224;-60
2022/04/17 14:31:29;;;;;;;7.03;4.00;;;;;;;;;;4979116;28;20357;-61
2022/04/17 14:33:55;;;;;;;5.57;3.10;;;;;;;;;;4985970;28;20206;-61
2022/04/17 14:36:21;;;;;;;5.00;3.05;;;;;;;;;;4976812;28;20336;-61
2022/04/17 14:38:46;;;;;;;4.78;3.17;;;;;;;;;;4968314;28;20214;-61
2022/04/17 14:41:14;;;;;;;5.25;2.80;;;;;;;;;;4967040;28;20221;-61
2022/04/17 14:43:39;;;;;;;4.72;2.72;;;;;;;;;;4985783;28;20750;-61
2022/04/17 14:46:04;;;;;;;5.45;3.05;;;;;;;;;;4986521;28;20213;-60
2022/04/17 14:48:30;;;;;;;6.25;2.50;;;;;;;;;;4974617;28;20237;-60
2022/04/17 14:50:56;;;;;;;5.82;2.92;;;;;;;;;;4963952;28;20233;-60
2022/04/17 14:53:22;;;;;;;4.85;2.78;;;;;;;;;;4959898;28;20240;-60
2022/04/17 14:55:48;;;;;;;4.07;2.75;;;;;;;;;;4963541;28;20336;-60